Main page
METAR-TAF:

METAR-TAF

Airports :

Bristol Airport

Bristol, England

latitude: 51-23N, longitude: 002-43W, elevation: 189 m

Current weather observation

The report was made 21 minutes ago, at 23:50 UTC
Wind 18 kt from the West
Temperature 12°C
Humidity 82%
Pressure 1016 hPa
Visibility 10 km or more
Broken clouds at a height of 1800 ft
Broken clouds at a height of 4100 ft

METAR: EGGD 052350Z AUTO 27018KT 9999 BKN018 BKN041 12/09 Q1016

Time: 01:11 (00:11 UTC)

Forecast

The report was made 1 hour and 17 minutes ago, at 22:54 UTC
Forecast valid from 06 at 00 UTC to 06 at 24 UTC
Wind 15 kt from the West with gusts up to 25 kt
Visibility 10 km or more
Scattered clouds at a height of 2500 ft
Becoming
from 06 at 00 UTC to 06 at 03 UTC
Wind 12 kt from the West/Northwest

TAF: EGGD 052254Z 0600/0624 28015G25KT 9999 SCT025 BECMG 0600/0603 29012KT

Weather observations and forecasts of more than 4000 airports (METAR and TAF reports).

The available stations are represented by yellow and red dots on the map.

Hover mouse over dot to see the name of the station.

Then click to see weather observations and forecasts.

To change the map : click on the green buttons with a black cross to zoom in, on the green button with a dash to zoom out, or on the green arrows for adjacent maps.


METAR-TAF: